Weather reports worldwide

Advertisment
El Arenosillo, Spain (8384): temperature & dewpoint: 07.12.2019 06:00:00 - 13.12.2019 06:00:00 (CET)El Arenosillo, Spain (8384): wind speed & gusts: 07.12.2019 06:00:00 - 13.12.2019 06:00:00 (CET)El Arenosillo, Spain (8384): wind direction: 07.12.2019 06:00:00 - 13.12.2019 06:00:00 (CET)El Arenosillo, Spain (8384): reduced air pressure: 07.12.2019 06:00:00 - 13.12.2019 06:00:00 (CET)El Arenosillo, Spain (8384): precipitation: 07.12.2019 06:00:00 - 13.12.2019 06:00:00 (CET)
Date & Time tt [°C] td [°C] ff [km/h] ff [kn] fx [km/h] fx [kn] dd ppp [hPa] rr [mm]
13.12.2019 06:00:00 - - - - - - - - -
13.12.2019 05:00:00 14,3 13,4 9 5 21 11 WNW 1023,7 0,0
13.12.2019 04:00:00 14,3 13,2 7 4 20 11 WNW 1024,1 0,0
13.12.2019 03:00:00 14,5 13,4 8 4 22 12 W 1024,0 0,0
13.12.2019 02:00:00 14,6 13,5 9 5 22 12 W 1024,3 0,0
13.12.2019 01:00:00 14,2 13,0 8 4 19 10 W 1025,2 -
13.12.2019 00:00:00 14,4 12,6 8 5 20 11 W 1025,2 0,0
12.12.2019 23:00:00 14,1 12,3 9 5 16 9 W 1025,2 0,0
12.12.2019 22:00:00 14,1 12,0 7 4 19 11 W 1025,4 0,0
12.12.2019 21:00:00 14,1 11,2 6 4 22 12 WNW 1025,3 0,0
12.12.2019 20:00:00 13,7 11,2 5 3 14 8 WNW 1025,5 0,0
12.12.2019 19:00:00 14,7 10,8 6 4 22 12 WNW 1025,6 -
12.12.2019 18:00:00 14,6 10,8 9 5 24 13 WNW 1025,5 0,0
12.12.2019 17:00:00 14,9 11,7 16 9 31 17 W 1025,4 0,0
12.12.2019 16:00:00 15,0 11,3 11 6 32 17 WSW 1025,7 0,0
12.12.2019 15:00:00 15,6 11,6 9 5 21 11 WSW 1026,7 0,0
12.12.2019 14:00:00 16,0 11,3 6 4 21 11 WSW 1027,0 -
12.12.2019 13:00:00 - - 0 0 20 11 N - -
12.12.2019 12:00:00 12,7 8,9 13 7 23 12 W - 0,0
12.12.2019 11:00:00 11,3 8,4 11 6 20 11 WNW - 0,0
12.12.2019 10:00:00 7,8 5,9 5 3 9 5 W - 0,0
12.12.2019 09:00:00 5,4 4,3 4 2 11 6 N - 0,0
12.12.2019 08:00:00 4,6 3,4 5 3 12 7 NNW - 0,0
12.12.2019 07:00:00 4,4 2,9 6 3 11 6 NNW - -
12.12.2019 06:00:00 6,2 3,8 4 2 16 8 W - 0,0
12.12.2019 05:00:00 6,2 3,2 9 5 22 12 N - 0,0
12.12.2019 04:00:00 7,7 3,4 14 8 30 16 N - 0,0
12.12.2019 03:00:00 7,5 3,6 16 8 29 15 N - 0,0
12.12.2019 02:00:00 5,8 2,3 3 2 11 6 NW - 0,0
12.12.2019 01:00:00 7,9 3,4 3 2 16 9 NW - -
12.12.2019 00:00:00 8,6 3,4 6 3 19 11 N - 0,0
11.12.2019 23:00:00 9,1 3,8 7 4 22 12 N - 0,0
11.12.2019 22:00:00 9,7 4,1 11 6 22 12 N - 0,0
11.12.2019 21:00:00 9,8 5,0 9 5 17 9 NNW - 0,0
11.12.2019 20:00:00 10,5 5,3 6 4 14 8 N - 0,0
11.12.2019 19:00:00 11,9 5,9 1 1 14 8 NNE - -
11.12.2019 18:00:00 14,9 6,2 9 5 30 16 NNW - 0,0
11.12.2019 17:00:00 16,2 5,5 16 9 34 18 NNW - 0,0
11.12.2019 16:00:00 16,5 8,9 16 9 29 16 NW - 0,0
11.12.2019 15:00:00 15,9 11,1 14 8 27 14 NW - 0,0
11.12.2019 14:00:00 13,9 12,1 7 4 19 10 W - 0,0
11.12.2019 13:00:00 14,0 11,0 9 5 24 13 W - -
11.12.2019 12:00:00 13,8 10,2 12 7 25 14 NW - 0,0
11.12.2019 11:00:00 12,9 9,6 14 8 29 15 NNW - 0,0
11.12.2019 10:00:00 8,8 8,0 13 7 19 10 NW - 0,0
11.12.2019 09:00:00 5,1 5,0 6 3 11 6 NW - 0,0
11.12.2019 08:00:00 2,4 2,1 2 1 4 2 NE - 0,0
11.12.2019 07:00:00 3,4 3,0 2 1 5 3 E - -
11.12.2019 06:00:00 3,3 2,9 1 0 5 3 NW - 0,0
11.12.2019 05:00:00 3,4 2,7 3 1 6 3 NNW - 0,0
11.12.2019 04:00:00 4,8 3,8 0 0 2 1 N - 0,0
11.12.2019 03:00:00 6,3 5,1 0 0 8 4 N - 0,0
11.12.2019 02:00:00 8,7 6,1 1 1 13 7 WNW - 0,0
11.12.2019 01:00:00 10,5 6,7 11 6 17 9 N - -
11.12.2019 00:00:00 10,1 7,6 11 6 16 9 N - 0,0
10.12.2019 23:00:00 9,7 8,9 5 3 9 5 NNW - 0,0
10.12.2019 22:00:00 10,2 9,4 3 2 8 4 NW - 0,0
10.12.2019 21:00:00 10,6 9,2 4 2 6 3 NW - 0,0
10.12.2019 20:00:00 11,1 9,0 4 2 6 4 WNW - 0,0
10.12.2019 19:00:00 13,0 9,3 3 2 11 6 WNW - -
10.12.2019 18:00:00 14,6 7,8 8 5 15 8 WNW - 0,0
10.12.2019 17:00:00 15,3 9,2 7 4 19 10 WNW - 0,0
10.12.2019 16:00:00 16,4 7,6 8 4 21 11 WNW - 0,0
10.12.2019 15:00:00 15,6 9,0 11 6 22 12 W - 0,0
10.12.2019 14:00:00 15,7 9,8 11 6 20 11 W - 0,0
10.12.2019 13:00:00 16,5 7,7 4 2 14 8 WSW - -
10.12.2019 12:00:00 16,3 8,3 6 3 15 8 NE - 0,0
10.12.2019 11:00:00 14,2 7,3 6 3 10 6 N - 0,0
10.12.2019 10:00:00 10,1 5,9 7 4 13 7 N - 0,0
10.12.2019 09:00:00 5,9 4,3 8 5 13 7 NNE - 0,0
10.12.2019 08:00:00 7,6 5,6 10 5 14 7 NE - 0,0
10.12.2019 07:00:00 7,4 5,9 10 5 13 7 NE - -
10.12.2019 06:00:00 8,1 6,4 8 5 15 8 NNE - 0,0
10.12.2019 05:00:00 8,3 7,3 10 5 13 7 NE - 0,0
10.12.2019 04:00:00 8,8 8,7 9 5 13 7 NE - 0,0
10.12.2019 03:00:00 9,1 8,8 8 5 12 6 NNE - 0,0
10.12.2019 02:00:00 8,8 8,7 6 3 10 5 NNE - 0,0
10.12.2019 01:00:00 8,3 8,1 6 3 8 5 NE - -
10.12.2019 00:00:00 8,8 8,5 3 2 6 4 ENE - 0,0
09.12.2019 23:00:00 9,6 9,3 3 2 6 4 ENE - 0,0
09.12.2019 22:00:00 9,9 9,4 5 3 7 4 ENE - 0,0
09.12.2019 21:00:00 10,0 9,0 2 1 7 4 ENE - 0,0
09.12.2019 20:00:00 11,6 11,0 4 2 7 4 N - 0,0
09.12.2019 19:00:00 13,3 11,7 3 2 4 2 NNW - -
09.12.2019 18:00:00 16,1 13,1 1 0 12 6 SW - 0,0
09.12.2019 17:00:00 17,2 13,6 3 2 13 7 W - 0,0
09.12.2019 16:00:00 17,3 14,4 4 2 12 6 SW - 0,0
09.12.2019 15:00:00 16,6 14,4 7 4 11 6 W - 0,0
09.12.2019 14:00:00 15,8 14,1 5 3 11 6 W - 0,0
09.12.2019 13:00:00 15,3 14,3 6 3 11 6 W - -
09.12.2019 12:00:00 16,1 14,4 4 2 7 4 SW - 0,0
09.12.2019 11:00:00 15,3 14,0 1 1 6 3 SW - 0,0
09.12.2019 10:00:00 15,3 14,1 2 1 10 5 NW - 0,0
09.12.2019 09:00:00 14,4 13,8 5 3 14 8 N - 0,0
09.12.2019 08:00:00 14,1 13,7 5 3 10 6 N - 0,0
09.12.2019 07:00:00 14,2 13,6 6 4 14 8 NNW - -
09.12.2019 06:00:00 13,6 13,2 9 5 16 9 NNW - 0,0
09.12.2019 05:00:00 12,6 12,1 6 3 13 7 N - 0,0
09.12.2019 04:00:00 12,9 12,4 5 3 13 7 N - 0,0
09.12.2019 03:00:00 11,0 10,6 6 3 10 6 NNW - 0,0
09.12.2019 02:00:00 10,7 10,4 6 4 10 5 NW - 0,0
09.12.2019 01:00:00 10,9 10,3 4 2 8 4 NW - -
09.12.2019 00:00:00 11,4 10,6 5 3 9 5 NNW - 0,0
08.12.2019 23:00:00 12,8 11,6 4 2 11 6 NW - 0,0
08.12.2019 22:00:00 13,4 12,3 5 3 13 7 WNW - 0,0
08.12.2019 21:00:00 13,6 12,3 5 3 10 5 NW - 0,0
08.12.2019 20:00:00 13,4 11,2 4 2 10 5 NW - 0,0
08.12.2019 19:00:00 13,9 11,6 5 3 11 6 W - -
08.12.2019 18:00:00 14,3 12,0 5 3 13 7 W - 0,0
08.12.2019 17:00:00 15,2 10,6 5 3 10 6 W - 0,0
08.12.2019 16:00:00 15,2 11,2 5 3 13 7 SW - 0,0
08.12.2019 15:00:00 15,0 11,0 5 3 13 7 WSW - 0,0
08.12.2019 14:00:00 14,4 10,4 5 3 13 7 WSW - 0,0
08.12.2019 13:00:00 14,3 10,3 6 3 10 5 SSW - -
08.12.2019 12:00:00 15,0 9,6 2 1 12 7 SSW - 0,0
08.12.2019 11:00:00 12,9 9,3 7 4 16 8 E - 0,0
08.12.2019 10:00:00 9,6 7,7 9 5 16 9 NE - 0,0
08.12.2019 09:00:00 6,8 6,2 9 5 15 8 NNE - 0,0
08.12.2019 08:00:00 6,6 5,9 7 4 14 7 NNE - 0,0
08.12.2019 07:00:00 7,6 6,8 9 5 16 9 ENE - -
08.12.2019 06:00:00 7,6 6,8 9 5 15 8 NE - 0,0
08.12.2019 05:00:00 6,9 6,1 6 3 13 7 NNE - 0,0
08.12.2019 04:00:00 7,4 6,2 2 1 11 6 NE - 0,0
08.12.2019 03:00:00 8,6 7,0 9 5 15 8 NE - 0,0
08.12.2019 02:00:00 9,6 7,8 10 5 14 7 NNE - 0,0
08.12.2019 01:00:00 8,8 7,6 4 2 8 4 N - -
08.12.2019 00:00:00 8,6 7,0 1 0 7 4 WNW - 0,0
07.12.2019 23:00:00 10,0 7,7 4 2 12 6 NW - 0,0
07.12.2019 22:00:00 10,3 8,4 4 2 8 5 NNW - 0,0
07.12.2019 21:00:00 10,6 9,6 6 3 10 5 NW - 0,0
07.12.2019 20:00:00 10,1 8,3 4 2 6 3 NW - 0,0
07.12.2019 19:00:00 11,9 9,0 3 2 6 3 NW - -
07.12.2019 18:00:00 14,7 10,5 2 1 9 5 WNW - 0,0
07.12.2019 17:00:00 15,6 10,8 6 3 11 6 W - 0,0
07.12.2019 16:00:00 15,3 10,5 8 4 16 8 W - 0,0
07.12.2019 15:00:00 16,0 10,0 6 3 12 6 W - 0,0
07.12.2019 14:00:00 16,1 10,6 4 2 16 9 WSW - 0,0
07.12.2019 13:00:00 17,9 9,3 3 2 19 11 E - -
07.12.2019 12:00:00 16,3 9,4 10 5 22 12 ENE - 0,0
07.12.2019 11:00:00 14,7 8,4 15 8 22 12 ENE - 0,0
07.12.2019 10:00:00 12,8 8,3 10 5 17 9 ENE - 0,0
07.12.2019 09:00:00 9,5 6,5 13 7 18 10 NE - 0,0
07.12.2019 08:00:00 9,4 6,7 12 7 17 9 NE - 0,0
07.12.2019 07:00:00 9,4 6,5 12 6 18 10 ENE - -
07.12.2019 06:00:00 9,4 6,7 11 6 15 8 NE - 0,0

tt = temperature
td = dewpoint
ff = wind speed
fx = gusts
dd = wind direction
ppp = reduced air pressure
rr = precipitation

Next stations